Bristow, Oklahoma
Current Conditions -  °F | °C
As of 4:15 PM on Friday 24 Oct 2014 (Local Time) from KCUH Reporting Station
Clear Clear  
Wind Chill: 82°   Ceiling: Unl
Heat Index: 85°   Visibility: 10mi
Dew Point: 66°   Wind: 13mph
Humidity: 58%   Direction: 200°SSW
Pressure: 30.02"   Gusts: 18mph
Location:  35.83°N, 96.39°W
Report Text: KCUH 242115Z AUTO 20011G16KT 10SM CLR 28/19 A3002 RMK AO2
Loading
Personal Weather Stations






























Interactive Weather Map
Tropical Storm Tracking
New forecast layout! Learn more

10-Day Weather Forecast

Advertisements
Track Severe Weather on mobile